Latest Weather Observations for Cobar

IDN60801

Issued at 9:35 pm EST Wednesday 23 April 2014 (issued every 30 minutes, with the page automatically refreshed every 10 minutes)

About weather observations | Map of weather stations | Latest weather observations for NSW | Other Formats
Station Details ID: 048027 Name: COBAR MO Lat: -31.48 Lon: 145.83 Height: 260.0 m
Data from the previous 72 hours. | See also: Recent months at Cobar
Date/Time
EST
Temp
°C
App
Temp
°C
Dew
Point
Rel
Hum
%
Delta-T
°C
Wind Press
QNH
hPa
Press
MSL
hPa
Rain
since 9 am
mm
Dir
 
Spd
km/h
Gust
km/h
Spd
kts
Gust
kts
23/09:30pm 20.2 15.9 3.3 32 8.1 ENE 15 17 8 9 1015.0 - 0.0
23/09:00pm 20.8 16.3 2.4 29 8.7 ENE 15 19 8 10 1015.1 1014.4 0.0
23/08:30pm 20.6 16.5 2.4 30 8.6 ENE 13 15 7 8 1015.0 - 0.0
23/08:00pm 20.9 16.8 2.2 29 8.8 ENE 13 15 7 8 1014.9 - 0.0
23/07:30pm 21.4 17.9 3.7 31 8.6 ENE 11 13 6 7 1014.9 - 0.0
23/07:00pm 22.0 18.4 3.2 29 9.1 ENE 11 13 6 7 1014.8 - 0.0
23/06:30pm 23.4 19.7 2.1 24 10.2 NNE 11 11 6 6 1014.6 - 0.0
23/06:00pm 24.7 21.4 2.2 23 10.9 NE 9 9 5 5 1014.5 1013.8 0.0
23/05:30pm 26.2 22.8 2.0 20 11.8 NNE 9 13 5 7 1014.3 - 0.0
23/05:00pm 27.3 24.1 1.0 18 12.7 NNE 7 15 4 8 1014.2 - 0.0
23/04:30pm 28.1 25.6 3.8 21 12.4 N 6 11 3 6 1014.2 - 0.0
23/04:00pm 28.4 25.0 1.9 18 13.1 NNW 9 13 5 7 1014.3 - 0.0
23/03:30pm 28.4 24.6 1.5 17 13.2 N 11 17 6 9 1014.3 - 0.0
23/03:00pm 28.8 25.6 2.8 19 13.1 N 9 19 5 10 1014.5 1013.8 0.0
23/02:30pm 28.1 24.7 1.6 18 13.0 NNE 9 17 5 9 1014.7 - 0.0
23/02:00pm 28.4 24.5 1.1 17 13.3 NNE 11 19 6 10 1014.8 - 0.0
23/01:30pm 29.0 26.0 2.1 17 13.4 N 7 13 4 7 1015.1 - 0.0
23/01:00pm 27.9 24.9 2.3 19 12.7 N 7 17 4 9 1015.5 - 0.0
23/12:30pm 27.0 24.2 2.9 21 12.0 NE 7 13 4 7 1016.0 - 0.0
23/12:00pm 26.4 22.8 2.7 21 11.7 N 11 17 6 9 1016.7 1015.9 0.0
23/11:30am 26.1 21.8 3.5 23 11.3 NNE 15 22 8 12 1017.2 - 0.0
23/11:00am 24.8 20.5 3.4 25 10.6 NNE 15 20 8 11 1017.6 - 0.0
23/10:30am 23.9 19.3 3.7 27 10.0 NNE 17 20 9 11 1017.7 - 0.0
23/10:00am 23.2 18.9 3.4 27 9.7 NNE 15 19 8 10 1017.9 - 0.0
23/09:30am 21.2 16.0 3.4 31 8.6 NNE 20 28 11 15 1018.0 - 0.0
23/09:00am 20.4 15.7 3.3 32 8.2 NNE 17 26 9 14 1018.0 1017.3 0.0
23/08:30am 19.0 14.2 2.8 34 7.6 NNE 17 24 9 13 1017.9 - 0.0
23/08:00am 17.1 12.7 2.8 38 6.6 NNE 15 20 8 11 1017.7 - 0.0
23/07:30am 15.5 11.5 3.1 43 5.7 NE 13 17 7 9 1017.4 - 0.0
23/07:00am 13.8 9.9 3.2 48 4.8 NE 13 17 7 9 1017.4 - 0.0
23/06:30am 13.2 9.6 3.2 50 4.5 NE 11 15 6 8 1017.3 - 0.0
23/06:00am 13.6 9.6 2.9 48 4.8 NE 13 15 7 8 1017.1 1016.4 0.0
23/05:30am 13.6 10.0 3.2 49 4.7 NE 11 13 6 7 1017.0 - 0.0
23/05:00am 14.4 10.0 2.9 46 5.2 NE 15 19 8 10 1016.8 - 0.0
23/04:30am 14.4 10.0 2.6 45 5.3 NE 15 19 8 10 1016.8 - 0.0
23/04:00am 14.8 10.8 2.6 44 5.5 NE 13 17 7 9 1016.7 - 0.0
23/03:30am 15.0 11.0 2.9 44 5.5 NE 13 15 7 8 1016.6 - 0.0
23/03:00am 15.2 11.5 2.6 42 5.7 NE 11 15 6 8 1016.6 1015.8 0.0
23/02:30am 14.9 10.9 2.8 44 5.5 NE 13 13 7 7 1016.6 - 0.0
23/02:00am 15.3 11.3 2.8 43 5.7 NE 13 17 7 9 1017.0 - 0.0
23/01:30am 15.4 11.4 2.9 43 5.7 NE 13 15 7 8 1017.2 - 0.0
23/01:00am 15.7 12.1 3.1 43 5.8 ENE 11 11 6 6 1017.3 - 0.0
23/12:30am 16.7 13.4 2.5 38 6.5 ENE 9 11 5 6 1017.4 - 0.0
23/12:00am 16.7 13.5 2.8 39 6.4 ENE 9 11 5 6 1017.5 1016.8 0.0
 
Date/Time
EST
Temp
°C
App
Temp
°C
Dew
Point
Rel
Hum
%
Delta-T
°C
Wind Press
QNH
hPa
Press
MSL
hPa
Rain
since 9 am
mm
Dir
 
Spd
km/h
Gust
km/h
Spd
kts
Gust
kts
22/11:30pm 16.7 13.7 4.0 43 6.0 ENE 9 9 5 5 1017.7 - 0.0
22/11:00pm 16.9 13.8 3.7 41 6.2 ENE 9 9 5 5 1017.8 - 0.0
22/10:30pm 17.2 14.7 4.5 43 6.1 NE 7 9 4 5 1018.0 - 0.0
22/10:00pm 17.3 14.5 5.2 45 5.9 NE 9 9 5 5 1017.9 - 0.0
22/09:30pm 17.8 15.0 5.1 43 6.2 NE 9 9 5 5 1017.8 - 0.0
22/09:00pm 18.2 15.5 5.6 43 6.2 NE 9 11 5 6 1017.7 1017.0 0.0
22/08:30pm 18.4 15.6 5.1 41 6.5 NE 9 11 5 6 1017.7 - 0.0
22/08:00pm 18.1 16.1 4.4 40 6.6 E 4 9 2 5 1017.5 - 0.0
22/07:30pm 20.3 18.2 5.8 38 7.3 SE 6 7 3 4 1017.4 - 0.0
22/07:00pm 20.5 18.4 5.8 38 7.4 SE 6 6 3 3 1017.2 - 0.0
22/06:30pm 22.3 20.1 5.2 33 8.6 S 6 7 3 4 1016.9 - 0.0
22/06:00pm 23.0 20.5 4.6 30 9.2 S 7 7 4 4 1016.7 1015.9 0.0
22/05:30pm 24.0 21.7 4.8 29 9.7 S 6 7 3 4 1016.6 - 0.0
22/05:00pm 24.5 22.4 3.8 26 10.3 WSW 4 7 2 4 1016.6 - 0.0
22/04:30pm 24.9 22.2 3.6 25 10.6 SW 7 13 4 7 1016.4 - 0.0
22/04:00pm 25.4 22.2 2.8 23 11.1 W 9 20 5 11 1016.6 - 0.0
22/03:30pm 25.0 22.2 3.1 24 10.8 SW 7 15 4 8 1016.6 - 0.0
22/03:00pm 25.8 22.5 2.6 22 11.4 NW 9 17 5 9 1016.7 1015.9 0.0
22/02:30pm 24.6 21.8 3.0 24 10.6 WNW 7 15 4 8 1016.9 - 0.0
22/02:00pm 24.4 20.6 1.9 23 10.8 W 11 17 6 9 1016.9 - 0.0
22/01:30pm 24.9 21.2 2.6 23 10.9 NW 11 19 6 10 1017.1 - 0.0
22/01:00pm 24.4 20.2 1.9 23 10.8 NW 13 19 7 10 1017.6 - 0.0
22/12:30pm 23.4 19.8 2.7 25 10.0 WNW 11 17 6 9 1018.2 - 0.0
22/12:00pm 23.1 19.0 2.2 25 10.0 WNW 13 19 7 10 1018.5 1017.8 0.0
22/11:30am 23.4 19.3 2.4 25 10.1 NNW 13 20 7 11 1019.1 - 0.0
22/11:00am 21.9 17.8 2.3 27 9.3 N 13 19 7 10 1019.5 - 0.0
22/10:30am 21.9 17.9 3.0 29 9.1 N 13 17 7 9 1019.8 - 0.0
22/10:00am 20.8 16.9 3.3 31 8.4 N 13 19 7 10 1019.8 - 0.0
22/09:30am 19.4 14.7 3.1 34 7.7 NNE 17 22 9 12 1019.9 - 0.0
22/09:00am 17.6 13.4 3.6 39 6.6 NNE 15 22 8 12 1020.0 1019.3 0.0
22/08:30am 15.9 11.7 3.7 44 5.7 NNE 15 19 8 10 1019.8 - 0.0
22/08:00am 13.9 10.5 4.2 52 4.5 NNE 11 15 6 8 1019.7 - 0.0
22/07:30am 12.8 9.0 4.1 55 4.0 NNE 13 15 7 8 1019.2 - 0.0
22/07:00am 12.3 7.7 3.7 55 3.9 NE 17 19 9 10 1018.7 - 0.0
22/06:30am 11.6 7.0 3.9 59 3.5 NE 17 19 9 10 1018.4 - 0.0
22/06:00am 11.0 7.6 3.9 61 3.2 NNE 11 15 6 8 1018.5 1017.8 0.0
22/05:30am 12.2 9.2 4.1 57 3.7 NE 9 13 5 7 1018.3 - 0.0
22/05:00am 12.1 9.1 4.0 57 3.7 ENE 9 13 5 7 1018.0 - 0.0
22/04:30am 12.7 8.9 3.9 55 4.0 ENE 13 15 7 8 1017.9 - 0.0
22/04:00am 12.7 9.3 3.9 55 4.0 E 11 15 6 8 1017.9 - 0.0
22/03:30am 12.9 9.1 3.7 53 4.2 ENE 13 15 7 8 1017.9 - 0.0
22/03:00am 13.5 9.7 3.7 51 4.5 NE 13 17 7 9 1018.0 1017.3 0.0
22/02:30am 13.9 10.0 3.6 50 4.7 NE 13 19 7 10 1018.3 - 0.0
22/02:00am 14.0 10.2 3.8 50 4.7 NE 13 17 7 9 1018.6 - 0.0
22/01:30am 13.9 10.0 3.6 50 4.7 NE 13 17 7 9 1018.7 - 0.0
22/01:00am 14.1 10.2 3.6 49 4.8 NE 13 17 7 9 1018.5 - 0.0
22/12:30am 15.0 11.2 3.8 47 5.2 NE 13 19 7 10 1018.8 - 0.0
22/12:00am 15.4 11.2 3.8 46 5.4 ENE 15 19 8 10 1018.9 1018.2 0.0
 
Date/Time
EST
Temp
°C
App
Temp
°C
Dew
Point
Rel
Hum
%
Delta-T
°C
Wind Press
QNH
hPa
Press
MSL
hPa
Rain
since 9 am
mm
Dir
 
Spd
km/h
Gust
km/h
Spd
kts
Gust
kts
21/11:30pm 14.9 11.2 4.2 48 5.0 NE 13 17 7 9 1019.2 - 0.0
21/11:00pm 14.6 11.3 4.6 51 4.7 NE 11 13 6 7 1019.5 - 0.0
21/10:30pm 15.2 11.5 4.6 49 5.0 ENE 13 17 7 9 1019.8 - 0.0
21/10:00pm 14.6 11.4 4.9 52 4.6 E 11 13 6 7 1019.8 - 0.0
21/09:30pm 14.6 11.8 5.1 53 4.5 E 9 11 5 6 1019.6 - 0.0
21/09:00pm 15.2 12.4 5.2 51 4.8 E 9 11 5 6 1019.7 1019.0 0.0
21/08:30pm 16.2 13.0 4.9 47 5.4 ENE 11 13 6 7 1019.5 - 0.0
21/08:00pm 16.7 13.7 4.3 43 5.9 NE 9 11 5 6 1019.4 - 0.0
21/07:30pm 17.6 14.5 3.6 39 6.6 ENE 9 11 5 6 1019.3 - 0.0
21/07:00pm 18.7 15.6 3.5 36 7.2 ENE 9 9 5 5 1018.9 - 0.0
21/06:30pm 19.3 15.7 2.7 33 7.8 NE 11 13 6 7 1019.0 - 0.0
21/06:00pm 19.1 16.0 3.6 35 7.4 NE 9 11 5 6 1018.7 1018.0 0.0
21/05:30pm 21.1 19.3 3.2 30 8.6 SE 2 7 1 4 1018.5 - 0.0
21/05:00pm 22.4 20.2 3.5 29 9.2 SE 4 7 2 4 1018.3 - 0.0
21/04:30pm 23.1 20.5 3.2 27 9.7 ESE 6 11 3 6 1018.3 - 0.0
21/04:00pm 22.6 19.6 2.3 26 9.7 S 7 11 4 6 1018.4 - 0.0
21/03:30pm 22.7 19.9 3.1 27 9.5 SSE 7 11 4 6 1018.4 - 0.0
21/03:00pm 23.3 20.0 2.2 25 10.1 ESE 9 17 5 9 1018.3 1017.6 0.0
21/02:30pm 22.6 19.7 2.6 27 9.6 WSW 7 11 4 6 1018.6 - 0.0
21/02:00pm 23.2 20.6 3.4 27 9.7 SSE 6 13 3 7 1018.8 - 0.0
21/01:30pm 22.2 18.9 2.2 26 9.5 ENE 9 15 5 8 1019.1 - 0.0
21/01:00pm 21.7 18.9 3.3 30 8.9 S 7 15 4 8 1019.6 - 0.0
21/12:30pm 21.9 19.1 3.3 29 9.0 N 7 13 4 7 1020.1 - 0.0
21/12:00pm 21.6 18.4 3.1 29 8.9 NE 9 15 5 8 1020.6 1019.9 0.0
21/11:30am 21.1 18.6 3.5 31 8.5 SW 6 9 3 5 1021.1 - 0.0
21/11:00am 20.0 16.9 3.8 34 7.8 SSE 9 11 5 6 1021.6 - 0.0
21/10:30am 20.6 17.8 3.2 31 8.3 E 7 13 4 7 1021.7 - 0.0
21/10:00am 19.7 16.6 3.6 34 7.7 ENE 9 13 5 7 1021.8 - 0.0
21/09:30am 18.2 14.9 2.7 35 7.2 NE 9 11 5 6 1022.1 - 0.0
21/09:00am 16.8 13.2 2.9 39 6.4 ENE 11 13 6 7 1022.2 1021.5 0.0
21/08:30am 15.2 11.7 3.5 45 5.4 ENE 11 13 6 7 1022.1 - 0.0
21/08:00am 13.2 9.7 3.5 52 4.4 E 11 15 6 8 1022.0 - 0.0
21/07:30am 11.1 8.0 3.5 59 3.4 E 9 13 5 7 1021.4 - 0.0
21/07:00am 9.4 6.2 3.2 65 2.7 E 9 13 5 7 1021.1 - 0.0
21/06:30am 9.3 6.2 3.4 66 2.6 E 9 13 5 7 1020.8 - 0.0
21/06:00am 9.3 6.1 3.1 65 2.7 E 9 13 5 7 1020.4 1019.8 0.0
21/05:30am 9.7 6.1 3.0 63 2.9 E 11 13 6 7 1020.2 - 0.0
21/05:00am 10.0 6.4 3.2 62 3.0 E 11 15 6 8 1019.9 - 0.0
21/04:30am 9.7 6.1 3.0 63 2.9 E 11 13 6 7 1019.6 - 0.0
21/04:00am 10.1 6.9 3.3 62 3.0 E 9 11 5 6 1019.5 - 0.0
21/03:30am 10.5 6.5 3.0 60 3.3 E 13 15 7 8 1019.4 - 0.0
21/03:00am 10.5 7.3 3.2 60 3.2 E 9 11 5 6 1019.4 1018.7 0.0
21/02:30am 11.1 7.5 2.9 57 3.6 E 11 13 6 7 1019.5 - 0.0
21/02:00am 11.1 7.9 3.2 58 3.5 E 9 13 5 7 1019.6 - 0.0
21/01:30am 11.5 7.9 2.9 55 3.8 E 11 13 6 7 1019.7 - 0.0
21/01:00am 11.3 7.7 3.2 57 3.6 E 11 13 6 7 1019.6 - 0.0
21/12:30am 11.4 8.2 3.3 57 3.6 E 9 11 5 6 1019.9 - 0.0
21/12:00am 12.3 9.1 3.1 53 4.1 ESE 9 11 5 6 1020.0 1019.3 0.0
 
Date/Time
EST
Temp
°C
App
Temp
°C
Dew
Point
Rel
Hum
%
Delta-T
°C
Wind Press
QNH
hPa
Press
MSL
hPa
Rain
since 9 am
mm
Dir
 
Spd
km/h
Gust
km/h
Spd
kts
Gust
kts
20/11:30pm 12.6 9.0 3.2 52 4.2 SE 11 15 6 8 1020.0 - 0.0
20/11:00pm 13.9 10.3 3.1 48 4.9 SE 11 15 6 8 1020.0 - 0.0
20/10:30pm 14.3 11.1 3.1 47 5.1 SSE 9 13 5 7 1020.1 - 0.0
20/10:00pm 14.6 11.4 2.9 45 5.3 SSE 9 11 5 6 1020.1 - 0.0

Other Formats:

Comma delimited format used in spreadsheet applications
http://www.bom.gov.au/fwo/IDN60801/IDN60801.94711.axf

JavaScript Object Notation format (JSON) in row-major order
http://www.bom.gov.au/fwo/IDN60801/IDN60801.94711.json